Time;durP1;ratioP1;P1;durP2;ratioP2;P2;SDS_P1;SDS_P2;PMS_P1;PMS_P2;Temp;Humidity;BMP_temperature;BMP_pressure;BME280_temperature;BME280_humidity;BME280_pressure;Samples;Min_cycle;Max_cycle;Signal;HPM_P1;HPM_P2
2023/10/29 00:01:41;;;;;;;3.13;0.82;;;11.10;99.90;;;;;;5009504;28;20030;-50
2023/10/29 00:04:06;;;;;;;3.05;1.13;;;11.10;99.90;;;;;;5008463;28;20102;-49
2023/10/29 00:06:32;;;;;;;0.90;0.63;;;11.00;99.90;;;;;;5008406;28;20030;-48
2023/10/29 00:08:58;;;;;;;1.50;0.73;;;11.00;99.90;;;;;;5009397;28;20321;-47
2023/10/29 00:11:24;;;;;;;0.75;0.60;;;11.00;99.90;;;;;;5008995;28;20178;-49
2023/10/29 00:13:49;;;;;;;2.20;0.70;;;11.00;99.90;;;;;;5008268;28;20030;-49
2023/10/29 00:16:15;;;;;;;4.40;1.05;;;11.00;99.90;;;;;;5009393;28;20042;-49
2023/10/29 00:18:41;;;;;;;5.07;0.75;;;11.00;99.90;;;;;;5008996;28;20137;-50
2023/10/29 00:21:06;;;;;;;4.07;0.90;;;11.00;99.90;;;;;;5009301;28;20199;-49
2023/10/29 00:23:32;;;;;;;4.68;1.00;;;11.10;99.90;;;;;;5008991;28;20046;-49
2023/10/29 00:25:58;;;;;;;2.65;0.70;;;11.10;99.90;;;;;;5009489;28;20171;-47
2023/10/29 00:28:25;;;;;;;4.90;0.90;;;11.20;99.90;;;;;;5009117;28;20056;-46
2023/10/29 00:30:52;;;;;;;7.32;1.33;;;11.30;99.90;;;;;;5009180;28;20034;-49
2023/10/29 00:33:18;;;;;;;5.85;0.88;;;11.30;99.90;;;;;;5008114;28;20019;-49
2023/10/29 00:35:43;;;;;;;9.05;1.73;;;11.30;99.90;;;;;;5008605;28;20034;-47
2023/10/29 00:38:09;;;;;;;4.97;1.10;;;11.20;99.90;;;;;;5008664;28;20080;-48
2023/10/29 00:40:38;;;;;;;6.10;1.50;;;11.20;99.90;;;;;;5008927;28;20026;-46
2023/10/29 00:43:04;;;;;;;8.50;1.42;;;11.20;99.90;;;;;;5008907;28;20056;-50
2023/10/29 00:45:30;;;;;;;6.47;1.17;;;11.20;99.90;;;;;;5008727;28;20302;-51
2023/10/29 00:47:55;;;;;;;9.88;1.60;;;11.20;99.90;;;;;;5007648;28;20046;-51
2023/10/29 00:50:21;;;;;;;8.27;1.60;;;11.20;99.90;;;;;;5007487;28;20033;-50
2023/10/29 00:52:47;;;;;;;6.60;1.30;;;11.20;99.90;;;;;;5008839;28;20045;-49
2023/10/29 00:55:12;;;;;;;7.72;1.50;;;11.20;99.90;;;;;;5008720;28;20018;-50
2023/10/29 00:57:38;;;;;;;9.38;1.55;;;11.20;99.90;;;;;;5006920;28;20068;-50
2023/10/29 01:00:06;;;;;;;4.00;1.15;;;11.30;99.90;;;;;;5008557;28;20030;-50
2023/10/29 01:02:33;;;;;;;9.32;1.50;;;11.40;99.90;;;;;;5008506;28;20100;-51
2023/10/29 01:04:58;;;;;;;7.70;1.63;;;11.40;99.90;;;;;;5007492;28;20034;-49
2023/10/29 01:07:24;;;;;;;12.93;1.40;;;11.40;99.90;;;;;;5008253;28;20096;-50
2023/10/29 01:09:50;;;;;;;8.18;2.03;;;11.50;99.90;;;;;;5007513;28;20057;-50
2023/10/29 01:12:16;;;;;;;5.70;1.13;;;11.50;99.90;;;;;;5008225;28;20234;-50
2023/10/29 01:14:42;;;;;;;4.00;1.10;;;11.50;99.90;;;;;;5008321;28;20069;-50
2023/10/29 01:17:08;;;;;;;7.55;1.50;;;11.50;99.90;;;;;;5008296;28;20022;-51
2023/10/29 01:19:34;;;;;;;11.27;1.58;;;11.50;99.90;;;;;;5007406;28;20045;-47
2023/10/29 01:21:59;;;;;;;5.55;1.40;;;11.50;99.90;;;;;;5006919;28;20042;-50
2023/10/29 01:24:25;;;;;;;7.57;1.40;;;11.50;99.90;;;;;;5008040;28;20089;-47
2023/10/29 01:26:51;;;;;;;8.82;1.50;;;11.50;99.90;;;;;;5008164;28;20041;-47
2023/10/29 01:29:17;;;;;;;7.63;1.27;;;11.40;99.90;;;;;;5008039;28;20255;-46
2023/10/29 01:31:42;;;;;;;8.65;1.73;;;11.40;99.90;;;;;;5007868;28;20050;-50
2023/10/29 01:34:08;;;;;;;7.82;1.38;;;11.40;99.90;;;;;;5008168;28;20176;-50
2023/10/29 01:36:33;;;;;;;11.20;1.63;;;11.30;99.90;;;;;;5007833;28;20053;-49
2023/10/29 01:38:59;;;;;;;7.72;1.38;;;11.40;99.90;;;;;;5007888;28;20029;-50
2023/10/29 01:41:25;;;;;;;7.57;1.17;;;11.30;99.90;;;;;;5007931;28;20062;-46
2023/10/29 01:43:50;;;;;;;5.70;1.77;;;11.30;99.90;;;;;;5006559;28;20202;-48
2023/10/29 01:46:16;;;;;;;5.85;1.10;;;11.30;99.90;;;;;;5007785;28;20088;-46
2023/10/29 01:48:42;;;;;;;6.63;1.52;;;11.30;99.90;;;;;;5007576;28;20030;-46
2023/10/29 01:51:07;;;;;;;9.70;1.83;;;11.30;99.90;;;;;;5007595;28;20038;-50
2023/10/29 01:53:33;;;;;;;4.78;1.30;;;11.30;99.90;;;;;;5007413;28;20140;-50
2023/10/29 01:55:59;;;;;;;4.28;1.27;;;11.40;99.90;;;;;;5007774;28;20145;-50
2023/10/29 01:58:24;;;;;;;7.78;1.50;;;11.40;99.90;;;;;;5007325;28;20109;-51
2023/10/29 02:00:54;;;;;;;8.02;1.40;;;11.40;99.90;;;;;;5007445;28;20037;-49
2023/10/29 02:03:20;;;;;;;5.97;1.45;;;11.40;99.90;;;;;;5007255;28;20034;-49
2023/10/29 02:05:46;;;;;;;9.32;1.50;;;11.40;99.90;;;;;;5007343;28;20089;-47
2023/10/29 02:08:11;;;;;;;6.97;1.52;;;11.40;99.90;;;;;;5006995;28;20045;-46
2023/10/29 02:10:37;;;;;;;5.10;1.10;;;11.40;99.90;;;;;;5006819;28;20314;-48
2023/10/29 02:13:03;;;;;;;11.25;1.60;;;11.40;99.90;;;;;;5005830;28;20101;-53
2023/10/29 02:15:28;;;;;;;9.38;2.72;;;11.40;99.90;;;;;;5006920;28;20086;-50
2023/10/29 02:17:54;;;;;;;11.23;1.52;;;11.40;99.90;;;;;;5007056;28;20076;-47
2023/10/29 02:20:19;;;;;;;7.97;1.20;;;11.40;99.90;;;;;;5006935;28;20057;-48
2023/10/29 02:22:45;;;;;;;3.22;0.90;;;11.50;99.90;;;;;;5007051;28;20022;-49
2023/10/29 02:25:11;;;;;;;5.55;1.50;;;11.50;99.90;;;;;;5006987;28;20034;-50
2023/10/29 02:27:36;;;;;;;6.95;1.20;;;11.50;99.90;;;;;;5006827;28;20046;-49
2023/10/29 02:30:02;;;;;;;6.47;1.20;;;11.50;99.90;;;;;;5007049;28;20022;-47
2023/10/29 02:32:28;;;;;;;7.05;1.42;;;11.50;99.90;;;;;;5006859;28;20102;-48
2023/10/29 02:34:53;;;;;;;6.40;1.33;;;11.50;99.90;;;;;;5006897;28;20104;-47
2023/10/29 02:37:19;;;;;;;6.07;1.10;;;11.50;99.90;;;;;;5006597;28;20022;-50
2023/10/29 02:39:45;;;;;;;8.93;2.03;;;11.50;99.90;;;;;;5006678;28;20041;-49
2023/10/29 02:42:14;;;;;;;3.70;0.90;;;11.50;99.90;;;;;;5006671;28;20038;-50
2023/10/29 02:44:40;;;;;;;5.88;1.50;;;11.50;99.90;;;;;;5006933;28;20025;-50
2023/10/29 02:47:05;;;;;;;4.18;1.33;;;11.40;99.90;;;;;;5006571;28;20184;-50
2023/10/29 02:49:31;;;;;;;3.67;1.15;;;11.50;99.90;;;;;;5006707;28;20164;-51
2023/10/29 02:51:57;;;;;;;8.77;1.50;;;11.50;99.90;;;;;;5006733;28;20167;-50
2023/10/29 02:54:22;;;;;;;6.95;1.20;;;11.50;99.90;;;;;;5006527;28;20104;-50
2023/10/29 02:56:48;;;;;;;8.73;1.50;;;11.60;99.90;;;;;;5006568;28;20049;-50
2023/10/29 02:59:14;;;;;;;8.68;1.50;;;11.60;99.90;;;;;;5005996;28;20026;-47
2023/10/29 03:01:39;;;;;;;6.05;1.40;;;11.60;99.90;;;;;;5005959;28;20034;-48
2023/10/29 03:04:05;;;;;;;5.10;1.10;;;11.60;99.90;;;;;;5006370;28;20046;-47
2023/10/29 03:06:31;;;;;;;6.35;1.25;;;11.70;99.90;;;;;;5006415;28;20085;-48
2023/10/29 03:08:57;;;;;;;7.50;1.17;;;11.70;99.90;;;;;;5006285;28;20042;-46
2023/10/29 03:11:23;;;;;;;9.15;2.05;;;11.70;99.90;;;;;;5005174;28;20053;-47
2023/10/29 03:13:48;;;;;;;5.68;1.10;;;11.70;99.90;;;;;;5005289;28;20044;-47
2023/10/29 03:16:14;;;;;;;8.48;1.60;;;11.70;99.90;;;;;;5005902;28;20026;-50
2023/10/29 03:18:39;;;;;;;5.97;1.20;;;11.60;99.90;;;;;;5006217;28;20026;-48
2023/10/29 03:21:05;;;;;;;7.50;1.08;;;11.60;99.90;;;;;;5005725;28;20050;-50
2023/10/29 03:23:31;;;;;;;12.82;1.73;;;11.50;99.90;;;;;;5006060;28;20069;-49
2023/10/29 03:26:01;;;;;;;3.15;0.93;;;11.60;99.90;;;;;;5006117;28;20191;-48
2023/10/29 03:28:27;;;;;;;7.35;1.55;;;11.60;99.90;;;;;;5006057;28;20026;-49
2023/10/29 03:30:53;;;;;;;4.80;1.23;;;11.50;99.90;;;;;;5006221;28;20037;-50
2023/10/29 03:33:18;;;;;;;5.75;1.10;;;11.60;99.90;;;;;;5006107;28;20283;-50
2023/10/29 03:35:44;;;;;;;5.55;1.25;;;11.60;99.90;;;;;;5006204;28;20181;-50
2023/10/29 03:38:09;;;;;;;7.45;1.40;;;11.60;99.90;;;;;;5006146;28;20038;-50
2023/10/29 03:40:36;;;;;;;6.00;1.08;;;11.60;99.90;;;;;;5005918;28;20069;-50
2023/10/29 03:43:02;;;;;;;6.65;1.20;;;11.60;99.90;;;;;;5006003;28;20061;-50
2023/10/29 03:45:28;;;;;;;8.90;1.70;;;11.60;99.90;;;;;;5005759;28;20207;-50
2023/10/29 03:47:54;;;;;;;8.32;1.27;;;11.60;99.90;;;;;;5005613;28;20072;-50
2023/10/29 03:50:19;;;;;;;5.63;1.00;;;11.60;99.90;;;;;;5005821;28;20065;-50
2023/10/29 03:52:45;;;;;;;9.77;1.23;;;11.60;99.90;;;;;;5005941;28;20026;-50
2023/10/29 03:55:11;;;;;;;6.82;1.15;;;11.60;99.90;;;;;;5004886;28;20351;-50
2023/10/29 03:57:36;;;;;;;8.70;1.40;;;11.60;99.90;;;;;;5005954;28;20235;-50
2023/10/29 04:00:03;;;;;;;4.40;1.20;;;11.60;99.90;;;;;;5005960;28;20275;-50
2023/10/29 04:02:28;;;;;;;8.98;1.88;;;11.60;99.90;;;;;;5005908;28;20038;-50
2023/10/29 04:04:54;;;;;;;11.05;1.35;;;11.60;99.90;;;;;;5005869;28;20316;-50
2023/10/29 04:07:20;;;;;;;8.90;1.33;;;11.60;99.90;;;;;;5005338;28;20295;-50
2023/10/29 04:09:46;;;;;;;6.70;1.00;;;11.60;99.90;;;;;;5005594;28;20034;-51
2023/10/29 04:12:11;;;;;;;6.03;1.10;;;11.60;99.90;;;;;;5005558;28;20023;-50
2023/10/29 04:14:39;;;;;;;8.20;1.40;;;11.60;99.90;;;;;;5005691;28;20035;-48
2023/10/29 04:17:06;;;;;;;7.88;1.55;;;11.60;99.90;;;;;;5005665;28;20030;-47
2023/10/29 04:19:32;;;;;;;8.18;1.40;;;11.70;99.90;;;;;;5005409;28;20026;-47
2023/10/29 04:21:58;;;;;;;5.95;1.00;;;11.70;99.90;;;;;;5005650;28;20243;-50
2023/10/29 04:24:23;;;;;;;8.52;1.42;;;11.60;99.90;;;;;;5005593;28;20042;-50
2023/10/29 04:26:49;;;;;;;11.85;1.67;;;11.60;99.90;;;;;;5005657;28;20041;-50
2023/10/29 04:29:16;;;;;;;6.63;1.60;;;11.50;99.90;;;;;;5005553;28;20046;-49
2023/10/29 04:31:42;;;;;;;7.13;1.30;;;11.50;99.90;;;;;;5004700;28;20065;-51
2023/10/29 04:34:07;;;;;;;4.72;1.00;;;11.40;99.90;;;;;;5008928;28;20026;-47
2023/10/29 04:36:33;;;;;;;7.60;1.23;;;11.40;99.90;;;;;;5009021;28;20030;-48
2023/10/29 04:38:59;;;;;;;8.60;1.40;;;11.40;99.90;;;;;;5009061;28;20053;-47
2023/10/29 04:41:24;;;;;;;6.07;1.25;;;11.40;99.90;;;;;;5009101;28;20030;-48
2023/10/29 04:43:50;;;;;;;10.60;1.48;;;11.30;99.90;;;;;;5009029;28;20034;-49
2023/10/29 04:46:15;;;;;;;10.95;2.30;;;11.30;99.90;;;;;;5008877;28;20097;-50
2023/10/29 04:48:41;;;;;;;7.35;1.13;;;11.30;99.90;;;;;;5008918;28;20069;-50
2023/10/29 04:51:07;;;;;;;6.72;1.50;;;11.30;99.90;;;;;;5008817;28;20026;-49
2023/10/29 04:53:36;;;;;;;13.23;1.73;;;11.30;99.90;;;;;;5008681;28;20184;-49
2023/10/29 04:56:02;;;;;;;11.60;1.90;;;11.30;99.90;;;;;;5007925;28;20029;-50
2023/10/29 04:58:28;;;;;;;6.70;1.90;;;11.30;99.90;;;;;;5008602;28;20153;-50
2023/10/29 05:00:56;;;;;;;4.70;1.70;;;11.30;99.90;;;;;;4991378;28;20034;-50
2023/10/29 05:03:22;;;;;;;5.88;1.23;;;11.30;99.90;;;;;;5008297;28;20026;-50
2023/10/29 05:05:47;;;;;;;10.32;1.38;;;11.20;99.90;;;;;;5008319;28;20105;-50
2023/10/29 05:08:13;;;;;;;8.50;1.27;;;11.20;99.90;;;;;;5007243;28;20311;-50
2023/10/29 05:10:41;;;;;;;13.57;1.73;;;11.10;99.90;;;;;;5007990;28;20100;-49
2023/10/29 05:13:07;;;;;;;6.00;1.05;;;11.10;99.90;;;;;;5008389;28;20034;-50
2023/10/29 05:15:32;;;;;;;6.60;1.05;;;11.00;99.90;;;;;;5008250;28;20031;-50
2023/10/29 05:17:58;;;;;;;9.93;1.30;;;10.90;99.90;;;;;;5008230;28;20258;-50
2023/10/29 05:20:23;;;;;;;8.70;1.15;;;10.90;99.90;;;;;;5008144;28;20090;-51
2023/10/29 05:22:49;;;;;;;10.90;1.70;;;10.80;99.90;;;;;;5007753;28;20180;-50
2023/10/29 05:25:15;;;;;;;7.70;1.70;;;10.70;99.90;;;;;;5007720;28;20233;-50
2023/10/29 05:27:52;;;;;;;8.20;1.50;;;10.70;99.90;;;;;;5007800;28;20299;-47
2023/10/29 05:30:18;;;;;;;9.25;1.20;;;10.60;99.90;;;;;;5007971;28;20280;-50
2023/10/29 05:32:44;;;;;;;8.75;1.60;;;10.60;99.90;;;;;;5007983;28;20037;-48
2023/10/29 05:35:10;;;;;;;7.70;1.48;;;10.60;99.90;;;;;;5007924;28;20018;-49
2023/10/29 05:37:35;;;;;;;9.93;1.45;;;10.60;99.90;;;;;;5007817;28;20026;-49
2023/10/29 05:40:05;;;;;;;15.18;2.05;;;10.50;99.90;;;;;;4990471;28;20052;-49
2023/10/29 05:42:31;;;;;;;7.45;1.50;;;10.50;99.90;;;;;;5007789;28;20085;-50
2023/10/29 05:44:57;;;;;;;10.95;1.83;;;10.50;99.90;;;;;;5007309;28;20034;-51
2023/10/29 05:47:23;;;;;;;11.45;1.67;;;10.40;99.90;;;;;;5007489;28;20130;-50
2023/10/29 05:49:49;;;;;;;10.55;2.13;;;10.40;99.90;;;;;;5007663;28;20050;-50
2023/10/29 05:52:14;;;;;;;8.20;1.63;;;10.30;99.90;;;;;;5007193;28;20038;-50
2023/10/29 05:54:40;;;;;;;11.27;2.63;;;10.40;99.90;;;;;;5006534;28;20026;-50
2023/10/29 05:57:06;;;;;;;9.90;2.25;;;10.30;99.90;;;;;;5006520;28;20026;-50
2023/10/29 05:59:32;;;;;;;13.38;1.98;;;10.30;99.90;;;;;;5007202;28;20116;-50
2023/10/29 06:01:58;;;;;;;12.00;2.08;;;10.20;99.90;;;;;;5007331;28;20035;-49
2023/10/29 06:04:25;;;;;;;9.93;1.67;;;10.30;99.90;;;;;;5007366;28;20049;-50
2023/10/29 06:06:50;;;;;;;9.77;1.88;;;10.40;99.90;;;;;;5007471;28;20192;-50
2023/10/29 06:09:16;;;;;;;12.75;2.25;;;10.40;99.90;;;;;;5006755;28;20026;-50
2023/10/29 06:11:42;;;;;;;16.58;2.13;;;10.50;99.90;;;;;;5006862;28;20321;-51
2023/10/29 06:14:08;;;;;;;11.23;2.30;;;10.60;99.90;;;;;;5007105;28;20038;-50
2023/10/29 06:16:34;;;;;;;17.25;2.30;;;10.70;99.90;;;;;;5007134;28;20223;-50
2023/10/29 06:19:02;;;;;;;13.75;2.20;;;10.70;99.90;;;;;;5007018;28;20056;-50
2023/10/29 06:21:28;;;;;;;15.60;2.00;;;10.80;99.90;;;;;;5006876;28;20042;-50
2023/10/29 06:23:54;;;;;;;15.02;2.30;;;10.80;99.90;;;;;;5006974;28;20045;-47
2023/10/29 06:26:19;;;;;;;9.00;1.70;;;10.90;99.90;;;;;;5006502;28;20046;-49
2023/10/29 06:28:45;;;;;;;10.05;1.85;;;10.90;99.90;;;;;;5006920;28;20039;-49
2023/10/29 06:31:11;;;;;;;12.55;2.38;;;10.90;99.90;;;;;;5005871;28;20179;-51
2023/10/29 06:33:37;;;;;;;14.52;1.67;;;10.90;99.90;;;;;;5006807;28;20276;-51
2023/10/29 06:36:04;;;;;;;12.23;2.20;;;10.90;99.90;;;;;;5006627;28;20061;-49
2023/10/29 06:38:29;;;;;;;15.63;2.00;;;10.80;99.90;;;;;;5006779;28;20026;-51
2023/10/29 06:40:55;;;;;;;8.88;1.73;;;10.90;99.90;;;;;;5006267;28;20177;-51
2023/10/29 06:43:21;;;;;;;11.55;2.60;;;10.90;99.90;;;;;;5006292;28;20239;-51
2023/10/29 06:45:46;;;;;;;12.45;2.30;;;10.80;99.90;;;;;;5006753;28;20064;-51
2023/10/29 06:48:12;;;;;;;6.88;1.60;;;10.80;99.90;;;;;;5006370;28;20041;-51
2023/10/29 06:50:38;;;;;;;9.88;2.05;;;10.80;99.90;;;;;;5006543;28;20171;-50
2023/10/29 06:53:05;;;;;;;11.10;2.17;;;10.80;99.90;;;;;;5006572;28;20176;-51
2023/10/29 06:55:31;;;;;;;10.57;1.98;;;10.70;99.90;;;;;;5005426;28;20037;-48
2023/10/29 06:57:56;;;;;;;9.30;1.80;;;10.70;99.90;;;;;;5005524;28;20042;-48
2023/10/29 07:00:22;;;;;;;10.88;2.13;;;10.70;99.90;;;;;;5006437;28;20280;-48
2023/10/29 07:02:48;;;;;;;8.43;1.70;;;10.60;99.90;;;;;;5006433;28;20140;-48
2023/10/29 07:05:14;;;;;;;9.05;2.05;;;10.60;99.90;;;;;;5006435;28;20041;-48
2023/10/29 07:07:40;;;;;;;10.73;1.95;;;10.60;99.90;;;;;;5006008;28;20145;-48
2023/10/29 07:10:06;;;;;;;11.48;2.40;;;10.60;99.90;;;;;;5005766;28;20038;-51
2023/10/29 07:12:32;;;;;;;11.57;1.80;;;10.60;99.90;;;;;;5005819;28;20084;-51
2023/10/29 07:14:58;;;;;;;11.25;2.45;;;10.70;99.90;;;;;;5006213;28;20022;-50
2023/10/29 07:17:24;;;;;;;14.15;1.83;;;10.70;99.90;;;;;;5006119;28;20042;-51
2023/10/29 07:19:51;;;;;;;13.75;1.90;;;10.60;99.90;;;;;;5005021;28;20030;-51
2023/10/29 07:22:16;;;;;;;11.52;2.22;;;10.70;99.90;;;;;;5006036;28;20049;-51
2023/10/29 07:24:42;;;;;;;11.63;2.53;;;10.70;99.90;;;;;;5006197;28;20188;-51
2023/10/29 07:27:07;;;;;;;11.23;2.58;;;10.70;99.90;;;;;;5006143;28;20182;-51
2023/10/29 07:29:33;;;;;;;9.98;1.75;;;10.70;99.90;;;;;;5005958;28;20225;-52
2023/10/29 07:31:59;;;;;;;9.43;1.60;;;10.70;99.90;;;;;;5006254;28;20054;-51
2023/10/29 07:34:24;;;;;;;9.15;1.63;;;10.70;99.90;;;;;;5005954;28;20121;-52
2023/10/29 07:36:50;;;;;;;6.10;1.80;;;10.60;99.90;;;;;;5005993;28;20026;-51
2023/10/29 07:39:16;;;;;;;10.40;2.38;;;10.70;99.90;;;;;;5006046;28;20026;-52
2023/10/29 07:41:41;;;;;;;10.18;1.80;;;10.70;99.90;;;;;;5006050;28;20165;-51
2023/10/29 07:44:07;;;;;;;9.23;1.70;;;10.80;99.90;;;;;;5005720;28;20034;-50
2023/10/29 07:46:33;;;;;;;10.38;2.20;;;10.80;99.90;;;;;;5006047;28;20026;-50
2023/10/29 07:48:58;;;;;;;20.20;2.50;;;10.80;99.90;;;;;;5005405;28;20030;-48
2023/10/29 07:51:24;;;;;;;10.38;1.83;;;10.90;99.90;;;;;;5005560;28;20292;-50
2023/10/29 07:53:50;;;;;;;9.35;2.30;;;11.00;99.90;;;;;;5005584;28;20038;-48
2023/10/29 07:56:16;;;;;;;11.50;1.70;;;11.10;99.90;;;;;;5005660;28;20188;-51
2023/10/29 07:58:41;;;;;;;6.97;1.40;;;11.30;99.90;;;;;;5005944;28;20034;-50
2023/10/29 08:01:14;;;;;;;11.02;1.52;;;11.40;99.90;;;;;;5005368;28;20330;-55
2023/10/29 08:03:41;;;;;;;6.85;1.50;;;11.40;99.90;;;;;;5005726;28;20043;-50
2023/10/29 08:06:06;;;;;;;3.25;1.00;;;11.40;99.90;;;;;;5006299;28;20299;-50
2023/10/29 08:08:32;;;;;;;8.68;1.58;;;11.60;99.90;;;;;;5009378;28;20030;-48
2023/10/29 08:10:58;;;;;;;7.15;1.40;;;12.00;99.90;;;;;;5009068;28;20109;-48
2023/10/29 08:13:23;;;;;;;4.82;1.42;;;12.70;99.90;;;;;;5008337;28;20032;-48
2023/10/29 08:15:49;;;;;;;11.88;1.73;;;13.10;99.90;;;;;;5008557;28;20160;-51
2023/10/29 08:18:15;;;;;;;6.80;1.40;;;13.40;99.90;;;;;;5009300;28;20089;-48
2023/10/29 08:20:41;;;;;;;4.95;1.38;;;13.00;99.90;;;;;;5008331;28;20080;-51
2023/10/29 08:23:07;;;;;;;3.53;0.98;;;13.40;99.90;;;;;;5009308;28;20030;-48
2023/10/29 08:25:35;;;;;;;9.10;1.27;;;13.70;99.90;;;;;;5009362;28;20049;-51
2023/10/29 08:28:01;;;;;;;4.95;1.13;;;13.70;99.90;;;;;;5008969;28;20098;-51
2023/10/29 08:30:26;;;;;;;5.07;1.35;;;13.80;99.90;;;;;;5009065;28;20022;-49
2023/10/29 08:32:52;;;;;;;5.68;1.73;;;14.20;99.90;;;;;;5008696;28;20041;-51
2023/10/29 08:35:18;;;;;;;4.22;0.90;;;14.60;99.90;;;;;;5008728;28;20026;-48
2023/10/29 08:37:43;;;;;;;2.20;0.93;;;14.40;99.90;;;;;;5009075;28;20037;-51
2023/10/29 08:40:09;;;;;;;3.97;1.10;;;14.30;99.90;;;;;;5008926;28;20049;-51
2023/10/29 08:42:36;;;;;;;5.57;1.10;;;14.20;99.90;;;;;;5008866;28;20085;-50
2023/10/29 08:45:01;;;;;;;5.15;0.93;;;13.70;99.90;;;;;;5007847;28;20022;-51
2023/10/29 08:47:27;;;;;;;7.28;1.02;;;13.40;99.90;;;;;;5008501;28;20046;-51
2023/10/29 08:49:53;;;;;;;8.55;1.50;;;13.10;99.90;;;;;;5007968;28;20026;-51
2023/10/29 08:52:18;;;;;;;5.85;1.15;;;12.90;99.90;;;;;;5007794;28;20149;-52
2023/10/29 08:54:45;;;;;;;7.15;1.15;;;12.90;99.90;;;;;;5008771;28;20061;-51
2023/10/29 08:57:10;;;;;;;6.88;1.38;;;13.00;99.90;;;;;;5008758;28;20034;-50
2023/10/29 08:59:36;;;;;;;2.65;0.80;;;13.00;99.90;;;;;;5008723;28;20049;-51
2023/10/29 09:02:02;;;;;;;4.25;1.10;;;13.10;99.90;;;;;;5008607;28;20038;-51
2023/10/29 09:04:27;;;;;;;3.70;1.02;;;13.10;99.90;;;;;;5008813;28;20175;-52
2023/10/29 09:06:53;;;;;;;6.88;1.25;;;12.90;99.90;;;;;;5008465;28;20045;-51
2023/10/29 09:09:19;;;;;;;1.98;0.75;;;12.80;99.90;;;;;;5008333;28;20038;-51
2023/10/29 09:11:46;;;;;;;4.20;0.95;;;12.80;99.90;;;;;;5008025;28;20180;-49
2023/10/29 09:14:13;;;;;;;4.25;0.90;;;12.70;99.90;;;;;;5008261;28;20033;-51
2023/10/29 09:16:39;;;;;;;2.22;0.70;;;13.30;99.90;;;;;;5008062;28;20034;-51
2023/10/29 09:19:05;;;;;;;5.28;1.25;;;13.40;99.90;;;;;;5007443;28;20060;-51
2023/10/29 09:21:31;;;;;;;5.85;1.00;;;14.60;99.90;;;;;;5008179;28;20078;-50
2023/10/29 09:23:56;;;;;;;5.05;1.00;;;15.50;99.90;;;;;;5007904;28;20034;-49
2023/10/29 09:26:22;;;;;;;7.47;1.60;;;16.20;99.90;;;;;;5007094;28;20046;-51
2023/10/29 09:28:48;;;;;;;0.55;0.55;;;16.50;99.90;;;;;;5008084;28;20085;-53
2023/10/29 09:31:17;;;;;;;4.28;0.98;;;16.30;99.90;;;;;;5008094;28;20145;-48
2023/10/29 09:33:43;;;;;;;4.65;1.05;;;16.80;99.90;;;;;;5007992;28;20029;-51
2023/10/29 09:36:09;;;;;;;4.47;0.88;;;17.10;99.90;;;;;;5006758;28;20030;-51
2023/10/29 09:38:34;;;;;;;4.47;0.98;;;17.30;99.90;;;;;;5007327;28;20092;-52
2023/10/29 09:41:00;;;;;;;5.05;0.80;;;17.50;96.90;;;;;;5007797;28;20054;-52
2023/10/29 09:43:26;;;;;;;4.40;1.40;;;18.10;95.20;;;;;;5007700;28;20023;-51
2023/10/29 09:45:52;;;;;;;5.05;1.13;;;17.90;93.90;;;;;;5007684;28;20034;-52
2023/10/29 09:48:18;;;;;;;7.57;1.60;;;17.90;96.00;;;;;;5007372;28;20045;-52
2023/10/29 09:50:44;;;;;;;3.35;0.88;;;18.00;94.60;;;;;;5006533;28;20033;-52
2023/10/29 09:53:14;;;;;;;2.28;0.95;;;18.10;93.00;;;;;;5007598;28;20283;-53
2023/10/29 09:55:40;;;;;;;6.20;1.42;;;17.10;96.20;;;;;;5006629;28;20036;-53
2023/10/29 09:58:06;;;;;;;5.70;1.30;;;17.10;96.40;;;;;;5007498;28;20030;-52
2023/10/29 10:00:32;;;;;;;4.25;1.10;;;17.30;97.10;;;;;;5006437;28;20248;-52
2023/10/29 10:02:58;;;;;;;4.22;1.75;;;17.60;95.40;;;;;;5006412;28;20226;-53
2023/10/29 10:05:28;;;;;;;8.27;1.35;;;17.70;92.20;;;;;;5007076;28;20223;-52
2023/10/29 10:07:53;;;;;;;6.07;1.27;;;16.90;94.40;;;;;;5007242;28;20044;-52
2023/10/29 10:10:20;;;;;;;4.60;1.35;;;16.30;99.90;;;;;;5006774;28;20078;-52
2023/10/29 10:12:50;;;;;;;4.93;0.82;;;16.50;98.40;;;;;;5007162;28;20050;-52
2023/10/29 10:15:16;;;;;;;6.45;1.30;;;15.80;99.90;;;;;;5007045;28;20058;-53
2023/10/29 10:17:56;;;;;;;4.35;1.27;;;16.80;97.90;;;;;;5006859;28;20203;-52
2023/10/29 10:20:22;;;;;;;3.92;1.35;;;17.00;97.40;;;;;;5006044;28;20038;-51
2023/10/29 10:22:55;;;;;;;2.58;0.85;;;17.80;92.30;;;;;;5006962;28;20026;-51
2023/10/29 10:25:23;;;;;;;5.75;1.77;;;17.70;88.80;;;;;;5006526;28;20041;-52
2023/10/29 10:27:53;;;;;;;1.92;0.85;;;17.70;91.00;;;;;;4989933;28;20066;-52
2023/10/29 10:30:28;;;;;;;5.03;1.40;;;17.50;89.80;;;;;;5006694;28;20180;-51
2023/10/29 10:33:06;;;;;;;5.07;1.45;;;18.00;88.50;;;;;;5006893;28;20026;-53
2023/10/29 10:35:45;;;;;;;4.95;1.17;;;17.80;90.80;;;;;;5005510;28;20022;-53
2023/10/29 10:38:11;;;;;;;4.57;1.52;;;18.00;91.10;;;;;;5006827;28;20069;-52
2023/10/29 10:40:37;;;;;;;5.35;1.35;;;18.40;90.60;;;;;;5006710;28;20030;-53
2023/10/29 10:43:04;;;;;;;3.50;1.25;;;19.10;86.30;;;;;;5005581;28;20034;-51
2023/10/29 10:45:31;;;;;;;3.22;1.05;;;19.50;80.20;;;;;;5006368;28;20112;-51
2023/10/29 10:47:58;;;;;;;7.18;1.23;;;19.90;77.50;;;;;;5006315;28;20033;-51
2023/10/29 10:50:27;;;;;;;4.88;1.10;;;18.50;83.20;;;;;;5006422;28;20330;-51
2023/10/29 10:52:53;;;;;;;6.63;1.48;;;16.70;97.00;;;;;;5005421;28;20034;-52
2023/10/29 10:55:19;;;;;;;6.97;1.50;;;16.30;98.90;;;;;;5005865;28;20303;-49
2023/10/29 10:57:45;;;;;;;8.15;1.20;;;17.60;94.50;;;;;;5006093;28;20041;-51
2023/10/29 11:00:14;;;;;;;7.75;1.50;;;18.30;90.30;;;;;;5005138;28;20110;-49
2023/10/29 11:02:40;;;;;;;6.97;1.30;;;18.60;84.70;;;;;;5006372;28;20038;-53
2023/10/29 11:05:10;;;;;;;3.70;1.00;;;18.70;83.80;;;;;;5006333;28;20045;-53
2023/10/29 11:07:40;;;;;;;8.70;1.65;;;19.20;77.70;;;;;;5005083;28;20109;-51
2023/10/29 11:10:08;;;;;;;4.68;1.13;;;19.40;76.40;;;;;;5004869;28;20062;-52
2023/10/29 11:12:37;;;;;;;5.57;1.65;;;19.30;76.40;;;;;;5005872;28;20034;-50
2023/10/29 11:15:13;;;;;;;7.97;1.98;;;18.90;79.60;;;;;;5006245;28;20041;-52
2023/10/29 11:18:00;;;;;;;10.57;1.80;;;19.70;75.40;;;;;;5005929;28;20145;-52
2023/10/29 11:20:49;;;;;;;8.50;1.88;;;20.20;73.00;;;;;;5004966;28;20050;-53
2023/10/29 11:23:15;;;;;;;8.93;1.97;;;20.00;69.20;;;;;;5006012;28;20066;-52
2023/10/29 11:25:41;;;;;;;8.27;1.45;;;20.30;69.40;;;;;;5005741;28;20407;-52
2023/10/29 11:28:34;;;;;;;5.90;1.30;;;19.60;69.70;;;;;;5005841;28;20101;-52
2023/10/29 11:31:18;;;;;;;6.50;1.25;;;18.30;79.30;;;;;;5001419;28;20157;-51
2023/10/29 11:33:56;;;;;;;9.27;1.50;;;18.70;82.00;;;;;;5005208;28;20030;-53
2023/10/29 11:36:34;;;;;;;7.95;1.60;;;19.70;78.20;;;;;;5005902;28;20089;-51
2023/10/29 11:39:15;;;;;;;5.28;1.52;;;20.60;70.70;;;;;;5004926;28;20030;-52
2023/10/29 11:41:47;;;;;;;8.30;1.30;;;20.70;63.10;;;;;;5007112;28;20062;-52
2023/10/29 11:44:29;;;;;;;6.60;1.60;;;19.90;66.30;;;;;;5009888;28;20030;-52
2023/10/29 11:46:58;;;;;;;11.40;2.15;;;19.70;62.70;;;;;;5009778;28;20038;-52
2023/10/29 11:49:26;;;;;;;6.03;1.20;;;18.90;68.00;;;;;;5009604;28;20037;-50
2023/10/29 11:51:56;;;;;;;6.70;1.40;;;18.40;71.50;;;;;;5008873;28;20038;-52
2023/10/29 11:54:24;;;;;;;2.33;0.77;;;17.40;77.30;;;;;;5009697;28;20026;-50
2023/10/29 11:56:51;;;;;;;5.20;1.17;;;17.50;80.60;;;;;;5009521;28;20196;-49
2023/10/29 11:59:16;;;;;;;3.85;1.00;;;18.30;78.80;;;;;;4992277;28;20057;-52
2023/10/29 12:01:42;;;;;;;5.90;1.15;;;18.90;70.90;;;;;;5009412;28;20065;-52
2023/10/29 12:04:09;;;;;;;5.53;1.25;;;18.50;73.40;;;;;;5008176;28;20031;-52
2023/10/29 12:06:42;;;;;;;4.65;1.42;;;18.20;72.90;;;;;;5008983;28;20098;-50
2023/10/29 12:09:18;;;;;;;4.60;0.90;;;17.50;74.00;;;;;;5007979;28;20030;-51
2023/10/29 12:11:45;;;;;;;7.00;1.45;;;18.20;72.50;;;;;;5007649;28;20289;-52
2023/10/29 12:14:11;;;;;;;4.95;1.20;;;19.20;66.50;;;;;;5009286;28;20184;-52
2023/10/29 12:16:36;;;;;;;8.52;1.58;;;19.50;64.40;;;;;;5008758;28;20077;-52
2023/10/29 12:19:02;;;;;;;9.48;1.65;;;19.70;65.30;;;;;;5009199;28;20050;-53
2023/10/29 12:21:28;;;;;;;5.35;1.38;;;19.70;65.10;;;;;;5008743;28;20149;-52
2023/10/29 12:23:57;;;;;;;7.30;1.45;;;19.50;63.20;;;;;;5009341;28;20057;-53
2023/10/29 12:26:23;;;;;;;6.78;1.45;;;19.40;64.50;;;;;;4991987;28;20220;-53
2023/10/29 12:28:49;;;;;;;6.10;1.33;;;19.30;65.90;;;;;;5009010;28;20060;-54
2023/10/29 12:31:26;;;;;;;4.45;1.50;;;18.80;65.90;;;;;;5008180;28;20309;-50
2023/10/29 12:33:58;;;;;;;8.38;1.38;;;18.70;70.30;;;;;;5008722;28;20029;-53
2023/10/29 12:36:24;;;;;;;10.00;1.88;;;19.10;68.90;;;;;;5007722;28;20057;-53
2023/10/29 12:38:50;;;;;;;9.25;1.20;;;19.90;64.60;;;;;;5009065;28;20183;-53
2023/10/29 12:41:16;;;;;;;8.13;1.65;;;19.40;64.90;;;;;;5008822;28;20046;-53
2023/10/29 12:43:52;;;;;;;12.07;1.65;;;18.80;68.20;;;;;;5008281;28;20094;-54